createdAt,value
2023-02-26T00:01:49.372Z,6.30
2023-02-26T00:04:18.010Z,6.60
2023-02-26T00:06:57.480Z,4.30
2023-02-26T00:09:28.870Z,5.30
2023-02-26T00:11:59.140Z,3.40
2023-02-26T00:14:28.543Z,7.20
2023-02-26T00:17:18.686Z,3.70
2023-02-26T00:19:47.298Z,4.30
2023-02-26T00:22:16.313Z,5.70
2023-02-26T00:24:44.729Z,4.10
2023-02-26T00:27:13.251Z,6.50
2023-02-26T00:29:42.421Z,3.90
2023-02-26T00:32:12.055Z,4.90
2023-02-26T00:34:41.461Z,5.10
2023-02-26T00:37:33.122Z,3.70
2023-02-26T00:40:17.076Z,3.10
2023-02-26T00:42:46.242Z,4.00
2023-02-26T00:45:15.372Z,1.90
2023-02-26T00:47:54.455Z,2.70
2023-02-26T00:50:25.365Z,2.00
2023-02-26T00:53:07.582Z,3.50
2023-02-26T00:55:36.182Z,4.00
2023-02-26T00:58:04.533Z,3.60
2023-02-26T01:00:32.986Z,3.20
2023-02-26T01:03:02.156Z,2.50
2023-02-26T01:05:31.431Z,2.30
2023-02-26T01:08:14.321Z,2.00
2023-02-26T01:10:43.225Z,3.40
2023-02-26T01:13:12.830Z,1.10
2023-02-26T01:15:46.731Z,3.30
2023-02-26T01:18:21.393Z,3.20
2023-02-26T01:20:55.081Z,1.50
2023-02-26T01:23:32.200Z,2.60
2023-02-26T01:26:10.839Z,4.00
2023-02-26T01:28:39.529Z,1.90
2023-02-26T01:31:19.590Z,3.70
2023-02-26T01:33:53.990Z,2.10
2023-02-26T01:36:28.425Z,2.90
2023-02-26T01:39:20.435Z,2.90
2023-02-26T01:41:55.674Z,2.50
2023-02-26T01:44:50.104Z,1.80
2023-02-26T01:52:48.670Z,1.20
2023-02-26T01:55:25.657Z,3.20
2023-02-26T01:57:58.454Z,2.30
2023-02-26T02:00:26.925Z,3.00
2023-02-26T02:02:55.635Z,2.40
2023-02-26T02:05:34.214Z,3.90
2023-02-26T02:08:02.745Z,1.60
2023-02-26T02:10:32.489Z,1.80
2023-02-26T02:13:00.783Z,2.00
2023-02-26T02:15:53.763Z,1.50
2023-02-26T02:18:33.141Z,3.40
2023-02-26T02:21:16.299Z,0.70
2023-02-26T02:24:15.803Z,1.60
2023-02-26T02:27:07.867Z,2.60
2023-02-26T02:30:03.777Z,2.30
2023-02-26T02:32:47.455Z,2.80
2023-02-26T02:35:24.954Z,2.00
2023-02-26T02:38:29.556Z,1.50
2023-02-26T02:41:29.894Z,2.70
2023-02-26T02:44:02.692Z,2.70
2023-02-26T02:46:36.240Z,2.30
2023-02-26T02:49:13.717Z,1.60
2023-02-26T02:51:54.662Z,1.30
2023-02-26T02:54:42.143Z,2.20
2023-02-26T02:57:23.855Z,1.60
2023-02-26T02:59:59.375Z,1.70
2023-02-26T03:02:36.607Z,3.20
2023-02-26T03:05:05.419Z,1.70
2023-02-26T03:07:40.656Z,2.30
2023-02-26T03:10:09.856Z,2.20
2023-02-26T03:12:38.777Z,2.50
2023-02-26T03:15:08.336Z,2.80
2023-02-26T03:17:51.551Z,2.80
2023-02-26T03:21:04.927Z,2.30
2023-02-26T03:23:40.961Z,1.00
2023-02-26T03:26:32.326Z,1.60
2023-02-26T03:29:16.340Z,1.70
2023-02-26T03:31:59.602Z,0.80
2023-02-26T03:34:35.657Z,1.60
2023-02-26T03:37:39.120Z,2.00
2023-02-26T03:40:14.242Z,3.70
2023-02-26T03:43:01.182Z,3.50
2023-02-26T03:45:33.644Z,2.00
2023-02-26T03:48:06.264Z,2.70
2023-02-26T03:50:40.563Z,1.60
2023-02-26T03:53:15.043Z,4.80
2023-02-26T03:56:18.522Z,4.40
2023-02-26T03:58:47.262Z,2.00
2023-02-26T04:01:22.126Z,1.10
2023-02-26T04:04:01.167Z,1.90
2023-02-26T04:06:31.247Z,3.50
2023-02-26T04:09:01.191Z,1.50
2023-02-26T04:11:31.244Z,1.40
2023-02-26T04:14:00.079Z,1.20
2023-02-26T04:16:28.691Z,2.00
2023-02-26T04:18:57.365Z,1.40
2023-02-26T04:21:25.727Z,2.60
2023-02-26T04:23:54.202Z,2.20
2023-02-26T04:26:23.265Z,2.70
2023-02-26T04:28:51.966Z,2.60
2023-02-26T04:31:20.694Z,2.00
2023-02-26T04:33:49.298Z,2.50
2023-02-26T04:36:17.679Z,4.40
2023-02-26T04:38:46.119Z,3.50
2023-02-26T04:41:14.577Z,2.00
2023-02-26T04:43:43.043Z,1.90
2023-02-26T04:46:12.074Z,3.40
2023-02-26T04:48:41.116Z,1.90
2023-02-26T04:51:09.524Z,3.90
2023-02-26T04:53:37.945Z,3.20
2023-02-26T04:56:07.324Z,2.10
2023-02-26T04:58:35.861Z,1.60
2023-02-26T05:01:04.538Z,3.50
2023-02-26T05:03:32.940Z,1.60
2023-02-26T05:06:02.177Z,3.20
2023-02-26T05:08:30.570Z,3.30
2023-02-26T05:10:58.962Z,5.10
2023-02-26T05:13:27.802Z,2.30
2023-02-26T05:15:56.262Z,2.20
2023-02-26T05:18:24.979Z,2.10
2023-02-26T05:20:56.284Z,3.80
2023-02-26T05:23:25.380Z,3.90
2023-02-26T05:25:57.304Z,2.20
2023-02-26T05:28:27.756Z,3.10
2023-02-26T05:30:58.615Z,3.20
2023-02-26T05:33:27.621Z,3.10
2023-02-26T05:35:57.181Z,3.10
2023-02-26T05:38:25.540Z,2.80
2023-02-26T05:40:58.260Z,3.70
2023-02-26T05:43:27.212Z,2.10
2023-02-26T05:45:55.924Z,1.60
2023-02-26T05:48:24.776Z,4.60
2023-02-26T05:50:53.242Z,2.10
2023-02-26T05:53:21.660Z,2.10
2023-02-26T05:55:50.747Z,5.30
2023-02-26T05:58:19.141Z,5.60
2023-02-26T06:00:47.965Z,1.90
2023-02-26T06:03:16.430Z,4.20
2023-02-26T06:05:45.096Z,1.90
2023-02-26T06:08:15.905Z,2.30
2023-02-26T06:10:44.837Z,2.70
2023-02-26T06:13:13.249Z,4.70
2023-02-26T06:15:42.111Z,4.00
2023-02-26T06:18:10.955Z,5.40
2023-02-26T06:20:39.373Z,4.80
2023-02-26T06:23:07.996Z,2.80
2023-02-26T06:25:36.875Z,5.60
2023-02-26T06:28:05.283Z,2.40
2023-02-26T06:30:33.753Z,1.90
2023-02-26T06:33:02.404Z,3.50
2023-02-26T06:35:30.829Z,2.20
2023-02-26T06:37:59.493Z,3.30
2023-02-26T06:40:27.946Z,2.20
2023-02-26T06:42:57.343Z,2.50
2023-02-26T06:45:25.743Z,4.70
2023-02-26T06:47:54.261Z,2.10
2023-02-26T06:50:23.015Z,2.10
2023-02-26T06:52:51.488Z,1.90
2023-02-26T06:55:22.371Z,2.70
2023-02-26T06:57:50.905Z,2.30
2023-02-26T07:00:19.966Z,2.20
2023-02-26T07:02:48.748Z,2.00
2023-02-26T07:05:18.202Z,1.40
2023-02-26T07:07:46.628Z,2.20
2023-02-26T07:10:15.325Z,3.00
2023-02-26T07:12:43.949Z,3.60
2023-02-26T07:15:12.880Z,2.60
2023-02-26T07:17:41.321Z,2.80
2023-02-26T07:20:12.550Z,2.40
2023-02-26T07:22:42.261Z,5.70
2023-02-26T07:25:12.809Z,4.10
2023-02-26T07:27:43.789Z,5.80
2023-02-26T07:30:13.278Z,6.10
2023-02-26T07:32:41.754Z,3.20
2023-02-26T07:35:11.188Z,3.30
2023-02-26T07:37:40.237Z,3.10
2023-02-26T07:40:09.817Z,3.00
2023-02-26T07:42:38.797Z,2.40
2023-02-26T07:45:08.580Z,3.10
2023-02-26T07:47:37.064Z,4.80
2023-02-26T07:50:06.218Z,3.00
2023-02-26T07:52:34.636Z,3.20
2023-02-26T07:55:03.059Z,3.50
2023-02-26T07:57:31.668Z,2.40
2023-02-26T08:00:00.235Z,2.60
2023-02-26T08:02:29.116Z,4.50
2023-02-26T08:04:57.758Z,3.40
2023-02-26T08:07:26.629Z,3.20
2023-02-26T08:09:54.998Z,5.10
2023-02-26T08:12:23.327Z,3.20
2023-02-26T08:14:51.777Z,5.30
2023-02-26T08:17:20.226Z,3.10
2023-02-26T08:19:48.897Z,3.90
2023-02-26T08:22:17.383Z,4.00
2023-02-26T08:24:45.731Z,2.40
2023-02-26T08:27:14.101Z,4.50
2023-02-26T08:29:43.201Z,3.60
2023-02-26T08:32:11.714Z,3.80
2023-02-26T08:34:40.362Z,4.70
2023-02-26T08:37:11.861Z,4.30
2023-02-26T08:39:40.275Z,7.60
2023-02-26T08:42:10.117Z,4.90
2023-02-26T08:44:38.389Z,7.10
2023-02-26T08:47:06.629Z,4.80
2023-02-26T08:49:34.916Z,6.40
2023-02-26T08:52:03.496Z,5.00
2023-02-26T08:54:32.407Z,6.80
2023-02-26T08:57:00.756Z,8.90
2023-02-26T08:59:29.044Z,9.70
2023-02-26T09:01:57.444Z,5.80
2023-02-26T09:04:28.688Z,5.90
2023-02-26T09:06:58.379Z,5.60
2023-02-26T09:09:26.787Z,3.70
2023-02-26T09:11:55.113Z,6.90
2023-02-26T09:14:23.393Z,6.10
2023-02-26T09:16:51.915Z,3.30
2023-02-26T09:19:20.881Z,4.40
2023-02-26T09:21:49.804Z,5.20
2023-02-26T09:24:18.148Z,4.20
2023-02-26T09:26:46.897Z,4.70
2023-02-26T09:29:15.241Z,3.70
2023-02-26T09:31:44.427Z,5.20
2023-02-26T09:34:14.012Z,6.00
2023-02-26T09:36:44.153Z,8.00
2023-02-26T09:39:13.079Z,6.70
2023-02-26T09:41:50.303Z,8.40
2023-02-26T09:44:25.901Z,6.40
2023-02-26T09:46:56.920Z,14.30
2023-02-26T09:50:02.419Z,6.90
2023-02-26T09:52:30.779Z,6.70
2023-02-26T09:55:21.382Z,5.70
2023-02-26T09:57:52.768Z,6.80
2023-02-26T10:00:38.893Z,6.00
2023-02-26T10:03:44.480Z,4.40
2023-02-26T10:06:22.054Z,2.60
2023-02-26T10:08:59.303Z,7.90
2023-02-26T10:11:56.938Z,6.40
2023-02-26T10:14:48.250Z,4.30
2023-02-26T10:17:16.427Z,8.20
2023-02-26T10:19:48.369Z,7.10
2023-02-26T10:22:31.832Z,4.70
2023-02-26T10:25:07.682Z,6.20
2023-02-26T10:27:54.486Z,4.80
2023-02-26T10:30:32.866Z,4.20
2023-02-26T10:33:12.974Z,6.30
2023-02-26T10:36:33.896Z,5.20
2023-02-26T10:39:16.460Z,3.40
2023-02-26T10:41:46.972Z,7.10
2023-02-26T10:44:46.377Z,6.10
2023-02-26T10:47:47.385Z,3.50
2023-02-26T10:50:21.040Z,3.50
2023-02-26T10:52:52.485Z,4.90
2023-02-26T10:55:46.942Z,5.80
2023-02-26T10:58:20.846Z,3.20
2023-02-26T11:00:54.023Z,4.10
2023-02-26T11:03:23.215Z,4.50
2023-02-26T11:05:52.067Z,5.30
2023-02-26T11:08:31.444Z,4.50
2023-02-26T11:11:02.228Z,4.00
2023-02-26T11:13:35.111Z,5.60
2023-02-26T11:16:10.706Z,3.80
2023-02-26T11:18:49.249Z,4.70
2023-02-26T11:21:23.566Z,5.90
2023-02-26T11:24:08.579Z,6.70
2023-02-26T11:26:39.742Z,3.60
2023-02-26T11:29:25.709Z,5.00
2023-02-26T11:31:58.230Z,5.10
2023-02-26T11:34:27.853Z,5.00
2023-02-26T11:37:00.462Z,6.20
2023-02-26T11:39:34.147Z,4.50
2023-02-26T11:42:05.321Z,6.70
2023-02-26T11:44:48.942Z,4.90
2023-02-26T11:47:27.047Z,6.60
2023-02-26T11:50:05.279Z,4.00
2023-02-26T11:52:42.920Z,7.70
2023-02-26T11:55:28.051Z,9.40
2023-02-26T11:57:58.456Z,7.60
2023-02-26T12:00:38.104Z,7.00
2023-02-26T12:03:16.365Z,4.60
2023-02-26T12:05:45.758Z,3.30
2023-02-26T12:08:40.466Z,3.50
2023-02-26T12:11:43.968Z,4.00
2023-02-26T12:14:30.863Z,5.90
2023-02-26T12:17:26.962Z,5.30
2023-02-26T12:20:20.286Z,6.50
2023-02-26T12:22:55.916Z,5.20
2023-02-26T12:25:37.684Z,4.60
2023-02-26T12:28:28.488Z,6.10
2023-02-26T12:31:09.354Z,5.60
2023-02-26T12:34:03.239Z,3.20
2023-02-26T12:36:54.307Z,5.70
2023-02-26T12:39:41.908Z,5.40
2023-02-26T12:42:32.216Z,6.40
2023-02-26T12:45:20.281Z,8.20
2023-02-26T12:48:15.015Z,4.50
2023-02-26T12:50:55.773Z,4.30
2023-02-26T12:53:46.947Z,6.10
2023-02-26T12:56:29.729Z,4.40
2023-02-26T12:59:04.460Z,3.10
2023-02-26T13:01:39.886Z,3.70
2023-02-26T13:04:42.968Z,4.80
2023-02-26T13:08:04.159Z,9.50
2023-02-26T13:11:33.106Z,7.30
2023-02-26T13:14:27.660Z,5.60
2023-02-26T13:16:57.200Z,5.00
2023-02-26T13:19:51.024Z,6.10
2023-02-26T13:22:50.025Z,4.30
2023-02-26T13:25:25.374Z,4.30
2023-02-26T13:28:02.127Z,5.00
2023-02-26T13:30:36.939Z,4.30
2023-02-26T13:33:09.242Z,5.00
2023-02-26T13:35:46.354Z,3.40
2023-02-26T13:38:35.142Z,3.60
2023-02-26T13:41:21.984Z,10.00
2023-02-26T13:43:56.148Z,4.80
2023-02-26T13:46:34.145Z,4.60
2023-02-26T13:49:51.421Z,4.90
2023-02-26T13:52:29.162Z,4.50
2023-02-26T13:55:00.246Z,3.60
2023-02-26T13:57:50.702Z,5.10
2023-02-26T14:00:31.549Z,10.00
2023-02-26T14:03:32.302Z,9.90
2023-02-26T14:06:27.863Z,6.10
2023-02-26T14:09:03.521Z,7.30
2023-02-26T14:11:46.580Z,5.90
2023-02-26T14:14:38.421Z,6.60
2023-02-26T14:17:10.706Z,6.20
2023-02-26T14:19:53.309Z,6.70
2023-02-26T14:22:29.714Z,4.80
2023-02-26T14:25:17.387Z,5.70
2023-02-26T14:27:49.426Z,4.50
2023-02-26T14:30:31.484Z,5.40
2023-02-26T14:33:06.513Z,6.80
2023-02-26T14:35:52.015Z,3.30
2023-02-26T14:38:29.466Z,3.60
2023-02-26T14:41:09.453Z,3.10
2023-02-26T14:43:52.292Z,4.00
2023-02-26T14:46:22.752Z,3.90
2023-02-26T14:48:52.976Z,5.00
2023-02-26T14:51:37.024Z,4.00
2023-02-26T14:54:54.017Z,7.60
2023-02-26T14:57:40.778Z,3.80
2023-02-26T15:00:29.927Z,3.60
2023-02-26T15:03:11.654Z,4.60
2023-02-26T15:06:16.619Z,2.90
2023-02-26T15:08:56.081Z,2.60
2023-02-26T15:11:44.230Z,8.10
2023-02-26T15:15:09.660Z,3.40
2023-02-26T15:20:33.178Z,8.60
2023-02-26T15:23:30.743Z,8.40
2023-02-26T15:26:01.446Z,6.10
2023-02-26T15:28:38.851Z,5.80
2023-02-26T15:31:13.572Z,5.20
2023-02-26T15:33:43.731Z,8.20
2023-02-26T15:36:18.655Z,5.10
2023-02-26T15:38:51.139Z,3.40
2023-02-26T15:41:20.761Z,3.80
2023-02-26T15:44:12.105Z,4.00
2023-02-26T15:46:51.200Z,2.70
2023-02-26T15:49:30.098Z,8.80
2023-02-26T15:52:02.027Z,6.20
2023-02-26T15:54:53.124Z,5.10
2023-02-26T15:57:25.386Z,5.50
2023-02-26T16:00:02.622Z,4.30
2023-02-26T16:02:39.683Z,7.50
2023-02-26T16:05:13.510Z,10.50
2023-02-26T16:07:44.344Z,10.20
2023-02-26T16:10:31.675Z,14.30
2023-02-26T16:13:03.164Z,9.50
2023-02-26T16:15:36.295Z,20.80
2023-02-26T16:18:09.231Z,11.50
2023-02-26T16:20:45.431Z,7.10
2023-02-26T16:23:25.965Z,10.40
2023-02-26T16:25:57.973Z,17.00
2023-02-26T16:28:35.721Z,21.50
2023-02-26T16:31:18.808Z,17.50
2023-02-26T16:34:05.744Z,11.90
2023-02-26T16:36:43.604Z,12.10
2023-02-26T16:39:27.936Z,12.90
2023-02-26T16:42:15.584Z,12.20
2023-02-26T16:45:08.094Z,10.10
2023-02-26T16:47:42.212Z,10.40
2023-02-26T16:50:27.639Z,11.10
2023-02-26T16:53:16.490Z,10.30
2023-02-26T16:56:17.829Z,20.70
2023-02-26T16:59:31.138Z,20.00
2023-02-26T17:02:16.749Z,12.80
2023-02-26T17:04:56.168Z,27.70
2023-02-26T17:07:32.135Z,27.50
2023-02-26T17:10:25.095Z,14.00
2023-02-26T17:13:15.478Z,21.80
2023-02-26T17:15:48.170Z,37.30
2023-02-26T17:18:20.193Z,14.80
2023-02-26T17:20:54.737Z,26.70
2023-02-26T17:23:31.598Z,40.80
2023-02-26T17:26:05.694Z,28.10
2023-02-26T17:28:41.186Z,14.10
2023-02-26T17:31:14.291Z,18.40
2023-02-26T17:33:45.496Z,18.70
2023-02-26T17:36:18.848Z,15.60
2023-02-26T17:38:51.013Z,15.70
2023-02-26T17:41:23.033Z,11.70
2023-02-26T17:43:53.608Z,21.60
2023-02-26T17:46:25.599Z,17.40
2023-02-26T17:48:55.685Z,22.80
2023-02-26T17:51:25.373Z,18.80
2023-02-26T17:54:03.502Z,19.20
2023-02-26T17:56:35.882Z,17.00
2023-02-26T17:59:08.013Z,18.40
2023-02-26T18:01:39.055Z,11.80
2023-02-26T18:04:10.218Z,9.30
2023-02-26T18:06:40.807Z,12.50
2023-02-26T18:09:14.030Z,13.50
2023-02-26T18:11:45.257Z,11.90
2023-02-26T18:14:14.898Z,14.20
2023-02-26T18:16:48.512Z,18.50
2023-02-26T18:19:18.978Z,9.60
2023-02-26T18:21:48.838Z,8.30
2023-02-26T18:24:28.866Z,7.90
2023-02-26T18:27:00.588Z,6.60
2023-02-26T18:29:32.080Z,8.50
2023-02-26T18:32:04.120Z,8.10
2023-02-26T18:34:35.420Z,6.20
2023-02-26T18:37:07.779Z,6.70
2023-02-26T18:39:39.830Z,6.00
2023-02-26T18:42:22.940Z,7.30
2023-02-26T18:44:53.662Z,7.70
2023-02-26T18:47:24.109Z,6.40
2023-02-26T18:49:59.409Z,5.50
2023-02-26T18:52:28.938Z,7.00
2023-02-26T18:54:59.660Z,6.60
2023-02-26T18:57:33.413Z,7.00
2023-02-26T19:00:06.386Z,7.00
2023-02-26T19:02:37.482Z,8.60
2023-02-26T19:05:11.538Z,7.60
2023-02-26T19:07:42.416Z,6.70
2023-02-26T19:10:16.255Z,6.70
2023-02-26T19:12:51.897Z,8.00
2023-02-26T19:15:22.149Z,8.00
2023-02-26T19:17:53.339Z,8.80
2023-02-26T19:20:26.973Z,13.30
2023-02-26T19:25:30.391Z,9.90
2023-02-26T19:28:01.188Z,10.30
2023-02-26T19:30:33.522Z,8.90
2023-02-26T19:33:06.004Z,10.10
2023-02-26T19:35:40.739Z,8.20
2023-02-26T19:38:12.524Z,7.60
2023-02-26T19:40:43.254Z,8.20
2023-02-26T19:43:16.407Z,11.10
2023-02-26T19:45:46.736Z,8.90
2023-02-26T19:48:17.245Z,8.80
2023-02-26T19:50:47.739Z,6.70
2023-02-26T19:53:21.006Z,8.40
2023-02-26T19:55:51.826Z,6.50
2023-02-26T19:58:22.860Z,14.20
2023-02-26T20:00:54.844Z,11.10
2023-02-26T20:03:25.579Z,11.30
2023-02-26T20:08:31.356Z,23.70
2023-02-26T20:11:01.166Z,15.40
2023-02-26T20:13:35.726Z,13.40
2023-02-26T20:16:09.131Z,18.50
2023-02-26T20:18:38.765Z,14.90
2023-02-26T20:21:11.245Z,14.70
2023-02-26T20:23:43.183Z,15.70
2023-02-26T20:26:16.607Z,17.20
2023-02-26T20:28:48.684Z,12.20
2023-02-26T20:31:22.743Z,10.10
2023-02-26T20:33:59.485Z,11.40
2023-02-26T20:36:29.744Z,16.70
2023-02-26T20:38:59.976Z,18.90
2023-02-26T20:41:30.709Z,11.60
2023-02-26T20:44:00.306Z,9.90
2023-02-26T20:46:34.500Z,12.80
2023-02-26T20:49:04.896Z,8.30
2023-02-26T20:51:34.524Z,19.20
2023-02-26T20:54:03.726Z,14.70
2023-02-26T20:56:35.092Z,10.40
2023-02-26T20:59:06.245Z,8.70
2023-02-26T21:01:54.574Z,5.80
2023-02-26T21:04:25.132Z,5.40
2023-02-26T21:06:55.205Z,5.90
2023-02-26T21:09:24.963Z,4.90
2023-02-26T21:11:54.853Z,6.60
2023-02-26T21:14:27.739Z,7.00
2023-02-26T21:17:00.442Z,5.70
2023-02-26T21:19:32.124Z,5.00
2023-02-26T21:22:02.249Z,8.80
2023-02-26T21:28:04.671Z,7.00
2023-02-26T21:30:36.572Z,9.30
2023-02-26T21:33:05.873Z,6.80
2023-02-26T21:35:35.131Z,7.70
2023-02-26T21:38:05.124Z,8.80
2023-02-26T21:40:34.211Z,5.20
2023-02-26T21:43:05.046Z,5.80
2023-02-26T21:45:36.523Z,9.10
2023-02-26T21:48:06.206Z,5.90
2023-02-26T21:50:35.740Z,6.80
2023-02-26T21:53:05.434Z,6.20
2023-02-26T21:55:34.201Z,7.00
2023-02-26T21:58:03.363Z,7.70
2023-02-26T22:00:32.223Z,10.00
2023-02-26T22:03:00.702Z,9.40
2023-02-26T22:05:29.850Z,7.60
2023-02-26T22:07:58.163Z,6.90
2023-02-26T22:10:26.671Z,8.50
2023-02-26T22:12:55.201Z,8.00
2023-02-26T22:15:23.810Z,7.00
2023-02-26T22:17:52.871Z,6.20
2023-02-26T22:20:21.330Z,6.70
2023-02-26T22:22:49.910Z,7.20
2023-02-26T22:25:18.431Z,5.50
2023-02-26T22:27:46.999Z,6.10
2023-02-26T22:30:15.734Z,6.80
2023-02-26T22:32:44.308Z,9.10
2023-02-26T22:35:14.190Z,9.40
2023-02-26T22:37:44.015Z,5.10
2023-02-26T22:40:13.799Z,4.30
2023-02-26T22:42:43.858Z,5.00
2023-02-26T22:45:13.900Z,6.30
2023-02-26T22:47:42.349Z,5.20
2023-02-26T22:50:11.687Z,6.50
2023-02-26T22:52:40.359Z,4.60
2023-02-26T22:55:10.568Z,5.20
2023-02-26T22:57:39.429Z,6.20
2023-02-26T23:00:13.110Z,7.70
2023-02-26T23:02:42.834Z,3.50
2023-02-26T23:05:12.117Z,5.00
2023-02-26T23:07:41.523Z,4.90
2023-02-26T23:10:14.630Z,2.90
2023-02-26T23:12:43.909Z,5.10
2023-02-26T23:15:13.609Z,5.50
2023-02-26T23:17:42.428Z,5.60
2023-02-26T23:20:14.153Z,6.70
2023-02-26T23:22:48.869Z,5.30
2023-02-26T23:25:17.560Z,5.50
2023-02-26T23:27:46.334Z,4.40
2023-02-26T23:30:15.389Z,5.70
2023-02-26T23:32:44.108Z,6.80
2023-02-26T23:35:12.531Z,5.00
2023-02-26T23:37:40.942Z,4.40
2023-02-26T23:40:10.656Z,4.50
2023-02-26T23:42:39.490Z,5.50
2023-02-26T23:45:09.053Z,3.60
2023-02-26T23:47:38.966Z,5.10
2023-02-26T23:50:08.072Z,6.60
2023-02-26T23:52:37.152Z,5.50
2023-02-26T23:55:06.674Z,5.70
2023-02-26T23:57:35.036Z,6.10
